Time;durP1;ratioP1;P1;durP2;ratioP2;P2;SDS_P1;SDS_P2;PMS_P1;PMS_P2;Temp;Humidity;BMP_temperature;BMP_pressure;BME280_temperature;BME280_humidity;BME280_pressure;Samples;Min_cycle;Max_cycle;Signal;HPM_P1;HPM_P2
2021/10/25 00:02:18;;;;;;;2.47;0.88;;;10.00;55.00;;;;;;5019027;28;20042;-80
2021/10/25 00:04:44;;;;;;;2.30;0.90;;;10.00;55.00;;;;;;5018571;28;20448;-82
2021/10/25 00:07:10;;;;;;;2.38;0.80;;;9.90;55.00;;;;;;5000475;28;20116;-81
2021/10/25 00:09:36;;;;;;;0.98;0.82;;;10.00;55.00;;;;;;5000988;28;20065;-80
2021/10/25 00:12:03;;;;;;;1.95;0.73;;;9.90;54.60;;;;;;5000802;28;20097;-81
2021/10/25 00:14:29;;;;;;;0.80;0.70;;;10.00;55.00;;;;;;5018176;28;20041;-81
2021/10/25 00:16:55;;;;;;;2.67;0.80;;;9.90;54.90;;;;;;5017166;28;20124;-79
2021/10/25 00:19:21;;;;;;;1.80;0.90;;;9.90;55.00;;;;;;5018016;28;20042;-81
2021/10/25 00:21:47;;;;;;;1.90;1.00;;;9.90;55.00;;;;;;5017253;28;20045;-82
2021/10/25 00:24:14;;;;;;;1.98;0.80;;;9.90;55.00;;;;;;4999897;28;20040;-83
2021/10/25 00:26:40;;;;;;;1.65;1.02;;;9.90;54.70;;;;;;5017288;28;20103;-81
2021/10/25 00:29:06;;;;;;;1.42;0.80;;;9.90;54.40;;;;;;4984279;28;20033;-82
2021/10/25 00:31:33;;;;;;;0.90;0.68;;;9.90;54.70;;;;;;4999599;28;20103;-80
2021/10/25 00:33:59;;;;;;;2.05;0.82;;;9.90;54.50;;;;;;4986776;28;20033;-80
2021/10/25 00:36:25;;;;;;;1.70;0.80;;;9.90;54.90;;;;;;5017464;28;20121;-81
2021/10/25 00:38:52;;;;;;;1.77;1.15;;;9.80;55.00;;;;;;5017378;28;20115;-81
2021/10/25 00:41:18;;;;;;;3.45;1.10;;;9.80;55.10;;;;;;4998058;28;20546;-80
2021/10/25 00:43:45;;;;;;;2.47;1.30;;;9.80;54.80;;;;;;5017964;28;20034;-80
2021/10/25 00:46:11;;;;;;;4.22;1.13;;;9.80;54.80;;;;;;5016500;28;20033;-80
2021/10/25 00:48:38;;;;;;;2.33;1.00;;;9.70;55.10;;;;;;5016927;28;20038;-81
2021/10/25 00:51:06;;;;;;;2.55;1.20;;;9.70;55.10;;;;;;5000312;28;20478;-81
2021/10/25 00:53:33;;;;;;;6.80;1.65;;;9.70;55.30;;;;;;4983610;28;20156;-80
2021/10/25 00:56:05;;;;;;;2.00;0.95;;;9.70;55.40;;;;;;4999545;28;20136;-80
2021/10/25 00:58:35;;;;;;;2.22;1.00;;;9.60;55.40;;;;;;5015852;28;20044;-80
2021/10/25 01:01:01;;;;;;;4.30;1.20;;;9.70;55.00;;;;;;5016927;28;20541;-81
2021/10/25 01:03:28;;;;;;;2.42;1.20;;;9.70;54.90;;;;;;4983939;28;20036;-80
2021/10/25 01:05:55;;;;;;;2.17;1.23;;;9.70;54.90;;;;;;5016940;28;20064;-80
2021/10/25 01:08:22;;;;;;;3.08;1.27;;;9.70;54.50;;;;;;4999129;28;20040;-81
2021/10/25 01:10:48;;;;;;;1.80;1.10;;;9.70;54.80;;;;;;4998218;28;20124;-80
2021/10/25 01:13:15;;;;;;;2.75;1.15;;;9.60;54.80;;;;;;4998288;28;20120;-79
2021/10/25 01:15:40;;;;;;;3.72;1.30;;;9.60;54.70;;;;;;5000180;28;20032;-81
2021/10/25 01:18:06;;;;;;;5.75;1.45;;;9.60;54.80;;;;;;4998704;28;20112;-82
2021/10/25 01:20:33;;;;;;;3.00;1.17;;;9.50;54.80;;;;;;4982028;28;20030;-80
2021/10/25 01:23:02;;;;;;;4.07;1.20;;;9.50;54.80;;;;;;4999964;28;20441;-80
2021/10/25 01:25:29;;;;;;;2.50;1.50;;;9.50;54.90;;;;;;4998576;28;20049;-80
2021/10/25 01:27:58;;;;;;;2.53;1.55;;;9.50;54.80;;;;;;4991194;28;20483;-80
2021/10/25 01:30:24;;;;;;;8.00;1.40;;;9.50;54.80;;;;;;5015541;28;20030;-79
2021/10/25 01:32:51;;;;;;;3.95;1.10;;;9.50;54.70;;;;;;4998032;28;20065;-79
2021/10/25 01:35:19;;;;;;;3.17;1.20;;;9.40;55.40;;;;;;4970794;28;20518;-79
2021/10/25 01:37:45;;;;;;;1.17;0.98;;;9.40;54.90;;;;;;4997345;28;20493;-82
2021/10/25 01:40:12;;;;;;;1.75;1.00;;;9.40;54.80;;;;;;5015062;28;20544;-81
2021/10/25 01:42:39;;;;;;;1.73;1.02;;;9.30;54.90;;;;;;5002007;28;20459;-80
2021/10/25 01:45:07;;;;;;;2.60;1.05;;;9.30;55.00;;;;;;4998727;28;20037;-82
2021/10/25 01:47:34;;;;;;;2.22;1.10;;;9.30;55.10;;;;;;5015089;28;20602;-81
2021/10/25 01:50:00;;;;;;;2.17;1.10;;;9.20;55.10;;;;;;4981923;28;20032;-81
2021/10/25 01:52:29;;;;;;;3.05;1.15;;;9.20;55.20;;;;;;4982915;28;20030;-81
2021/10/25 01:54:57;;;;;;;2.70;1.23;;;9.10;55.10;;;;;;4998253;28;20068;-83
2021/10/25 01:57:24;;;;;;;2.33;1.35;;;9.10;55.30;;;;;;5015776;28;20093;-80
2021/10/25 01:59:51;;;;;;;1.90;1.42;;;9.10;55.50;;;;;;4997147;28;20100;-79
2021/10/25 02:02:23;;;;;;;2.80;1.33;;;9.00;55.60;;;;;;4997577;28;20034;-80
2021/10/25 02:04:52;;;;;;;2.95;1.30;;;9.00;55.60;;;;;;4997667;28;20040;-80
2021/10/25 02:07:18;;;;;;;1.80;1.20;;;9.00;55.70;;;;;;4986273;28;20041;-81
2021/10/25 02:09:44;;;;;;;1.63;1.20;;;9.00;55.70;;;;;;4997058;28;20120;-82
2021/10/25 02:12:11;;;;;;;1.77;1.35;;;8.90;55.70;;;;;;5016445;28;20057;-81
2021/10/25 02:14:38;;;;;;;2.95;1.50;;;8.90;55.80;;;;;;4997979;28;20084;-81
2021/10/25 02:17:04;;;;;;;3.60;1.45;;;8.90;55.90;;;;;;4986600;28;20453;-80
2021/10/25 02:19:41;;;;;;;3.00;1.60;;;8.90;55.90;;;;;;5002239;28;20029;-81
2021/10/25 02:22:13;;;;;;;2.55;1.65;;;8.90;55.90;;;;;;5002229;28;20056;-81
2021/10/25 02:24:39;;;;;;;3.17;1.45;;;8.90;56.00;;;;;;5002880;28;20048;-82
2021/10/25 02:27:06;;;;;;;10.43;1.73;;;8.90;56.00;;;;;;5001837;28;20049;-81
2021/10/25 02:29:35;;;;;;;3.13;1.65;;;8.90;56.00;;;;;;5001593;28;20428;-82
2021/10/25 02:32:12;;;;;;;2.08;1.42;;;8.90;56.00;;;;;;5002062;28;20107;-82
2021/10/25 02:34:37;;;;;;;3.50;1.30;;;8.90;56.00;;;;;;4993166;28;20041;-82
2021/10/25 02:37:04;;;;;;;1.55;1.30;;;8.90;56.10;;;;;;4989753;28;20535;-81
2021/10/25 02:39:30;;;;;;;2.95;1.50;;;8.90;56.10;;;;;;5001487;28;20111;-80
2021/10/25 02:41:56;;;;;;;2.60;1.38;;;8.80;56.20;;;;;;5000798;28;20029;-80
2021/10/25 02:44:24;;;;;;;2.58;1.27;;;8.80;56.10;;;;;;5019491;28;20112;-80
2021/10/25 02:46:53;;;;;;;3.25;1.35;;;8.80;56.20;;;;;;5019875;28;20132;-80
2021/10/25 02:49:19;;;;;;;2.25;1.55;;;8.80;56.30;;;;;;5002761;28;20496;-81
2021/10/25 02:51:46;;;;;;;2.50;1.42;;;8.80;56.20;;;;;;5001383;28;20040;-81
2021/10/25 02:54:13;;;;;;;2.55;1.30;;;8.80;56.20;;;;;;5017284;28;20029;-81
2021/10/25 02:56:48;;;;;;;3.30;1.45;;;8.80;56.10;;;;;;4986271;28;20136;-80
2021/10/25 02:59:15;;;;;;;3.72;1.60;;;8.80;56.10;;;;;;5000644;28;20042;-81
2021/10/25 03:01:42;;;;;;;4.97;1.50;;;8.80;56.00;;;;;;5001272;28;20034;-81
2021/10/25 03:04:11;;;;;;;3.25;1.70;;;8.70;56.10;;;;;;5001413;28;20040;-80
2021/10/25 03:06:38;;;;;;;4.50;1.60;;;8.70;56.10;;;;;;5001495;28;20404;-82
2021/10/25 03:09:05;;;;;;;4.05;1.67;;;8.70;56.20;;;;;;5004924;28;20080;-81
2021/10/25 03:11:34;;;;;;;2.40;1.63;;;8.60;56.30;;;;;;5017149;28;20125;-81
2021/10/25 03:14:01;;;;;;;3.42;1.80;;;8.60;56.40;;;;;;5001952;28;20030;-81
2021/10/25 03:16:32;;;;;;;4.28;2.03;;;8.70;56.50;;;;;;4998660;28;20553;-82
2021/10/25 03:18:58;;;;;;;2.40;1.67;;;8.60;56.30;;;;;;5018532;28;20029;-81
2021/10/25 03:21:25;;;;;;;3.45;1.90;;;8.60;56.30;;;;;;5006445;28;20084;-81
2021/10/25 03:23:51;;;;;;;4.13;2.10;;;8.60;56.30;;;;;;5001765;28;20041;-80
2021/10/25 03:26:18;;;;;;;2.53;2.08;;;8.60;56.30;;;;;;4999622;28;20046;-81
2021/10/25 03:28:45;;;;;;;4.35;1.98;;;8.60;56.40;;;;;;5000469;28;20041;-81
2021/10/25 03:31:11;;;;;;;4.00;2.03;;;8.50;56.40;;;;;;5001776;28;20745;-82
2021/10/25 03:33:39;;;;;;;6.45;2.05;;;8.50;56.50;;;;;;5000824;28;20084;-81
2021/10/25 03:36:19;;;;;;;4.43;2.00;;;8.50;56.50;;;;;;4989277;28;20061;-81
2021/10/25 03:38:46;;;;;;;3.25;2.20;;;8.50;56.50;;;;;;5013291;28;20128;-84
2021/10/25 03:41:22;;;;;;;3.75;2.20;;;8.50;56.50;;;;;;4999132;28;20068;-81
2021/10/25 03:43:56;;;;;;;4.10;2.13;;;8.50;56.60;;;;;;4998901;28;20036;-82
2021/10/25 03:48:57;;;;;;;6.57;2.25;;;8.40;56.70;;;;;;4999767;28;20030;-82
2021/10/25 03:51:23;;;;;;;3.15;2.10;;;8.40;56.80;;;;;;4989073;28;20037;-82
2021/10/25 04:27:33;;;;;;;8.88;2.65;;;8.70;56.10;;;;;;5000268;28;20033;-83
2021/10/25 04:30:04;;;;;;;5.53;2.92;;;8.60;56.10;;;;;;4999078;28;20605;-84
2021/10/25 04:32:31;;;;;;;4.93;2.50;;;8.60;56.20;;;;;;4985189;28;20040;-84
2021/10/25 04:35:00;;;;;;;3.75;2.72;;;8.70;56.30;;;;;;4987637;28;20488;-84
2021/10/25 04:37:44;;;;;;;6.32;2.28;;;8.80;56.30;;;;;;5017705;28;20041;-85
2021/10/25 04:40:15;;;;;;;3.60;2.50;;;8.70;56.10;;;;;;5016438;28;20034;-85
2021/10/25 04:42:41;;;;;;;5.07;3.38;;;8.70;56.10;;;;;;5011674;28;20033;-87
2021/10/25 04:45:07;;;;;;;5.65;2.67;;;8.80;56.00;;;;;;5005307;28;20026;-88
2021/10/25 04:47:36;;;;;;;4.65;2.97;;;8.70;55.90;;;;;;4989765;28;20029;-89
2021/10/25 04:50:10;;;;;;;7.25;3.70;;;8.70;56.00;;;;;;4983892;28;20033;-87
2021/10/25 04:53:12;;;;;;;5.65;3.35;;;8.60;60.30;;;;;;4996368;28;21148;-89
2021/10/25 04:55:37;;;;;;;4.57;3.30;;;8.70;62.60;;;;;;4983127;28;20124;-86
2021/10/25 04:58:04;;;;;;;6.78;2.63;;;8.70;60.50;;;;;;5025380;28;20480;-88
2021/10/25 05:00:30;;;;;;;5.95;3.30;;;8.70;59.20;;;;;;4992683;28;20040;-86
2021/10/25 05:02:57;;;;;;;5.07;3.25;;;8.80;58.60;;;;;;4998300;28;20037;-87
2021/10/25 05:05:23;;;;;;;7.28;3.28;;;8.70;58.20;;;;;;5010189;28;20222;-85
2021/10/25 05:07:49;;;;;;;5.70;3.50;;;8.80;57.90;;;;;;4995696;28;20085;-84
2021/10/25 05:10:15;;;;;;;6.10;3.53;;;8.80;57.70;;;;;;5001674;28;20037;-83
2021/10/25 05:12:41;;;;;;;5.07;3.05;;;8.90;57.50;;;;;;5013587;28;20049;-85
2021/10/25 05:15:07;;;;;;;7.15;3.22;;;8.90;58.00;;;;;;4995590;28;20030;-84
2021/10/25 05:17:33;;;;;;;5.10;3.35;;;8.90;58.60;;;;;;4995102;28;20512;-84
2021/10/25 05:20:04;;;;;;;6.43;3.55;;;9.00;59.00;;;;;;4990408;28;20587;-85
2021/10/25 05:22:35;;;;;;;6.25;3.83;;;9.00;59.10;;;;;;5013870;28;20149;-85
2021/10/25 05:25:01;;;;;;;4.03;3.17;;;9.10;59.00;;;;;;5012545;28;20516;-84
2021/10/25 05:27:27;;;;;;;7.28;3.45;;;9.20;59.00;;;;;;4978961;28;20117;-86
2021/10/25 05:29:53;;;;;;;5.15;3.60;;;9.30;58.90;;;;;;5015832;28;20554;-83
2021/10/25 05:32:19;;;;;;;5.43;3.50;;;9.40;58.80;;;;;;5016404;28;20034;-85
2021/10/25 05:34:46;;;;;;;5.05;3.38;;;9.50;58.70;;;;;;4981946;28;20034;-84
2021/10/25 05:37:12;;;;;;;4.10;3.10;;;9.60;58.50;;;;;;4989677;28;20128;-85
2021/10/25 05:39:38;;;;;;;5.70;3.85;;;9.70;58.40;;;;;;5007090;28;20038;-85
2021/10/25 05:42:08;;;;;;;7.20;4.00;;;9.80;58.30;;;;;;4998853;28;20045;-88
2021/10/25 05:44:35;;;;;;;6.43;3.80;;;9.80;58.10;;;;;;4982538;28;20029;-84
2021/10/25 05:47:01;;;;;;;7.65;3.70;;;10.00;58.20;;;;;;4995992;28;20025;-86
2021/10/25 05:49:27;;;;;;;4.47;3.95;;;10.00;58.10;;;;;;4998997;28;20033;-86
2021/10/25 05:51:54;;;;;;;6.05;4.05;;;10.10;58.10;;;;;;4980910;28;20040;-86
2021/10/25 05:54:21;;;;;;;4.78;3.80;;;10.20;58.10;;;;;;4998526;28;20493;-86
2021/10/25 05:56:48;;;;;;;6.53;4.32;;;10.30;57.80;;;;;;4997404;28;20505;-85
2021/10/25 05:59:15;;;;;;;5.85;3.65;;;10.40;57.50;;;;;;4981936;28;20504;-85
2021/10/25 06:01:56;;;;;;;7.10;4.20;;;10.40;57.40;;;;;;4998669;28;20053;-86
2021/10/25 06:04:26;;;;;;;5.90;3.90;;;10.50;57.20;;;;;;4983232;28;20128;-86
2021/10/25 06:07:30;;;;;;;6.53;3.83;;;10.60;56.80;;;;;;4993490;28;20416;-86
2021/10/25 06:09:57;;;;;;;5.60;4.00;;;10.70;56.50;;;;;;4997428;28;20098;-86
2021/10/25 06:12:37;;;;;;;7.35;4.05;;;10.70;56.30;;;;;;4997734;28;20369;-85
2021/10/25 06:15:42;;;;;;;5.18;3.92;;;10.80;56.30;;;;;;4990198;28;20042;-85
2021/10/25 06:18:09;;;;;;;5.40;4.32;;;10.90;56.10;;;;;;4998702;28;20068;-87
2021/10/25 06:20:39;;;;;;;6.13;3.90;;;11.00;56.00;;;;;;4998924;28;20083;-85
2021/10/25 06:23:13;;;;;;;4.95;3.85;;;11.00;55.90;;;;;;5002084;28;20052;-86
2021/10/25 06:25:46;;;;;;;7.38;3.85;;;11.00;55.60;;;;;;4989295;28;20045;-93
2021/10/25 06:28:14;;;;;;;5.40;3.83;;;11.10;56.30;;;;;;4998807;28;20025;-89
2021/10/25 06:31:07;;;;;;;7.30;3.97;;;11.10;56.50;;;;;;5000546;28;20570;-87
2021/10/25 06:33:52;;;;;;;4.30;3.55;;;11.20;57.50;;;;;;5020638;28;20112;-90
2021/10/25 06:36:37;;;;;;;6.75;4.07;;;11.30;58.10;;;;;;5026098;28;20044;-90
2021/10/25 06:39:33;;;;;;;7.03;3.53;;;11.30;58.10;;;;;;5008728;28;20022;-89
2021/10/25 06:42:00;;;;;;;4.82;3.40;;;11.30;58.10;;;;;;4992780;28;20048;-88
2021/10/25 06:47:22;;;;;;;6.75;3.92;;;11.50;58.30;;;;;;4997947;28;20112;-88
2021/10/25 06:49:50;;;;;;;7.60;4.13;;;11.50;58.20;;;;;;4999799;28;20036;-88
2021/10/25 06:52:16;;;;;;;6.35;3.80;;;11.50;58.10;;;;;;4998512;28;20037;-87
2021/10/25 06:54:43;;;;;;;4.57;3.92;;;11.50;57.90;;;;;;4983400;28;20037;-88
2021/10/25 06:57:10;;;;;;;4.82;4.10;;;11.60;57.90;;;;;;5003519;28;20526;-87
2021/10/25 06:59:40;;;;;;;9.57;5.22;;;11.60;58.00;;;;;;4998910;28;20144;-85
2021/10/25 07:02:12;;;;;;;8.40;5.50;;;11.60;57.90;;;;;;4998494;28;20034;-86
2021/10/25 07:04:39;;;;;;;10.35;6.78;;;11.70;57.90;;;;;;5000174;28;20037;-86
2021/10/25 07:07:06;;;;;;;12.35;7.28;;;11.60;58.00;;;;;;4983533;28;20029;-88
2021/10/25 07:09:32;;;;;;;8.80;5.85;;;11.70;58.10;;;;;;5018446;28;20538;-87
2021/10/25 07:11:58;;;;;;;7.55;5.55;;;11.70;57.90;;;;;;4985227;28;20033;-89
2021/10/25 07:14:33;;;;;;;9.63;5.05;;;11.70;57.90;;;;;;5000274;28;20044;-88
2021/10/25 08:12:16;;;;;;;5.03;4.10;;;11.90;58.40;;;;;;4949935;28;20065;-88
2021/10/25 08:14:49;;;;;;;7.50;4.30;;;11.90;58.10;;;;;;4945941;28;20486;-88
2021/10/25 08:17:22;;;;;;;6.30;4.22;;;11.90;58.00;;;;;;4983653;28;20046;-87
2021/10/25 08:19:52;;;;;;;6.45;4.20;;;11.90;58.00;;;;;;5001178;28;20068;-88
2021/10/25 08:22:18;;;;;;;6.57;3.92;;;11.90;57.80;;;;;;4972102;28;20032;-88
2021/10/25 08:24:50;;;;;;;10.40;4.57;;;11.90;57.60;;;;;;5000880;28;20552;-86
2021/10/25 08:27:21;;;;;;;4.95;4.00;;;11.90;57.60;;;;;;5015253;28;20025;-87
2021/10/25 08:29:48;;;;;;;8.35;4.85;;;11.90;57.60;;;;;;4983722;28;20034;-87
2021/10/25 08:35:02;;;;;;;8.32;4.63;;;11.90;57.50;;;;;;5017876;28;20037;-85
2021/10/25 08:40:40;;;;;;;6.22;4.85;;;12.00;57.40;;;;;;4939936;29;20047;-87
2021/10/25 08:43:09;;;;;;;5.78;4.38;;;11.90;57.10;;;;;;4968374;28;20037;-86
2021/10/25 08:45:36;;;;;;;9.73;4.53;;;12.00;57.20;;;;;;5014193;28;20040;-88
2021/10/25 08:48:05;;;;;;;6.15;3.47;;;12.00;57.20;;;;;;4985865;28;20504;-88
2021/10/25 08:50:34;;;;;;;5.22;3.67;;;12.00;57.10;;;;;;4983568;28;20323;-87
2021/10/25 08:53:07;;;;;;;6.43;4.18;;;12.00;57.00;;;;;;5000030;28;20099;-88
2021/10/25 08:55:46;;;;;;;7.85;3.90;;;12.00;57.10;;;;;;4988472;28;20029;-89
2021/10/25 08:58:14;;;;;;;5.85;3.92;;;12.00;57.00;;;;;;5001528;28;20508;-88
2021/10/25 09:00:44;;;;;;;8.15;3.90;;;12.10;56.90;;;;;;5019201;28;20542;-86
2021/10/25 09:03:22;;;;;;;7.90;3.40;;;12.00;56.90;;;;;;4999680;28;20397;-87
2021/10/25 09:05:57;;;;;;;6.82;3.15;;;12.00;56.80;;;;;;4988310;28;20095;-87
2021/10/25 09:08:25;;;;;;;4.30;3.72;;;12.10;57.30;;;;;;4980584;28;20116;-86
2021/10/25 09:10:52;;;;;;;4.45;3.70;;;12.10;57.30;;;;;;4999741;28;20040;-86
2021/10/25 09:13:21;;;;;;;6.85;3.63;;;12.10;57.10;;;;;;4986668;28;20064;-86
2021/10/25 09:15:52;;;;;;;5.80;3.53;;;12.10;57.00;;;;;;4986875;28;20492;-86
2021/10/25 09:18:51;;;;;;;7.45;3.80;;;12.10;57.00;;;;;;4963954;28;20128;-86
2021/10/25 09:21:31;;;;;;;6.10;3.80;;;12.20;57.60;;;;;;4983349;28;20044;-87
2021/10/25 09:23:59;;;;;;;5.57;3.60;;;12.20;56.90;;;;;;4982680;28;20021;-86
2021/10/25 09:26:29;;;;;;;5.50;3.67;;;12.20;56.80;;;;;;4997936;28;20501;-86
2021/10/25 09:29:00;;;;;;;5.63;3.65;;;12.20;56.60;;;;;;4997995;28;20284;-86
2021/10/25 09:31:31;;;;;;;4.05;3.25;;;12.20;56.50;;;;;;5001906;28;20049;-86
2021/10/25 09:34:08;;;;;;;6.03;3.60;;;12.20;56.40;;;;;;4990571;28;20125;-86
2021/10/25 09:36:58;;;;;;;5.47;3.80;;;12.20;56.40;;;;;;5009914;28;20198;-86
2021/10/25 09:39:37;;;;;;;7.45;4.05;;;12.20;56.20;;;;;;4982106;28;20061;-87
2021/10/25 09:42:25;;;;;;;5.85;3.58;;;12.20;56.10;;;;;;4983331;28;20484;-86
2021/10/25 09:51:01;;;;;;;6.45;3.70;;;12.20;55.80;;;;;;4998522;28;20563;-86
2021/10/25 09:53:39;;;;;;;4.18;3.55;;;12.20;55.70;;;;;;4997592;28;20107;-86
2021/10/25 09:56:10;;;;;;;7.00;3.50;;;12.20;55.70;;;;;;4997522;28;20026;-86
2021/10/25 09:59:11;;;;;;;5.90;3.38;;;12.20;55.60;;;;;;4983870;28;20029;-86
2021/10/25 10:01:40;;;;;;;4.93;3.90;;;12.20;55.40;;;;;;4976649;28;20270;-85
2021/10/25 10:04:07;;;;;;;5.22;3.60;;;12.20;55.30;;;;;;4985970;28;20508;-87
2021/10/25 10:06:51;;;;;;;6.45;3.42;;;12.20;55.30;;;;;;5016472;28;20531;-87
2021/10/25 10:09:18;;;;;;;9.02;3.90;;;12.20;55.30;;;;;;4981478;28;20038;-86
2021/10/25 10:11:44;;;;;;;6.63;3.58;;;12.20;55.20;;;;;;4998176;28;20056;-86
2021/10/25 10:14:13;;;;;;;6.20;3.30;;;12.20;55.10;;;;;;4998074;28;20455;-87
2021/10/25 10:16:47;;;;;;;6.32;3.45;;;12.20;55.00;;;;;;4997149;28;20113;-86
2021/10/25 10:19:21;;;;;;;4.90;3.38;;;12.20;55.00;;;;;;4981873;28;20038;-87
2021/10/25 10:22:08;;;;;;;6.43;3.88;;;12.20;54.90;;;;;;5014044;28;20030;-82
2021/10/25 10:24:53;;;;;;;8.23;3.47;;;12.20;54.20;;;;;;4997524;28;20876;-82
2021/10/25 10:27:21;;;;;;;6.05;3.50;;;12.20;52.10;;;;;;5016404;28;20208;-81
2021/10/25 10:29:53;;;;;;;7.95;3.78;;;12.10;51.50;;;;;;4983067;28;20523;-82
2021/10/25 10:32:38;;;;;;;5.60;2.97;;;12.10;50.80;;;;;;5013277;28;20029;-82
2021/10/25 10:35:43;;;;;;;5.85;3.00;;;12.00;51.00;;;;;;4995047;28;20065;-80
2021/10/25 10:38:13;;;;;;;4.00;3.22;;;11.90;51.30;;;;;;5013072;28;20054;-81
2021/10/25 10:41:08;;;;;;;4.90;3.00;;;11.90;51.80;;;;;;5027535;28;20033;-82
2021/10/25 10:44:15;;;;;;;2.80;2.40;;;11.80;51.70;;;;;;5017435;28;20048;-81
2021/10/25 10:46:43;;;;;;;3.90;2.67;;;11.80;51.80;;;;;;5001739;28;20083;-81
2021/10/25 10:49:37;;;;;;;4.60;3.22;;;11.80;51.20;;;;;;5013596;28;20503;-82
2021/10/25 10:52:13;;;;;;;4.75;2.90;;;11.70;50.50;;;;;;5013999;28;20115;-81
2021/10/25 10:54:46;;;;;;;13.20;3.85;;;11.70;50.40;;;;;;5006985;28;20069;-82
2021/10/25 10:57:26;;;;;;;5.93;3.35;;;11.70;50.30;;;;;;5010688;28;20092;-82
2021/10/25 11:00:02;;;;;;;4.22;2.67;;;11.70;50.30;;;;;;5016948;28;20065;-82
2021/10/25 11:02:27;;;;;;;5.45;2.72;;;11.60;50.20;;;;;;5018997;28;20034;-81
2021/10/25 11:05:08;;;;;;;7.57;2.67;;;11.60;50.20;;;;;;5015841;28;20091;-82
2021/10/25 11:07:39;;;;;;;4.22;2.70;;;11.60;50.20;;;;;;5017318;28;20423;-82
2021/10/25 11:10:06;;;;;;;4.22;2.67;;;11.60;50.10;;;;;;5019314;28;20121;-82
2021/10/25 11:12:35;;;;;;;3.65;2.40;;;11.50;50.20;;;;;;5002091;28;20037;-82
2021/10/25 11:15:04;;;;;;;10.75;2.70;;;11.50;50.10;;;;;;5022050;28;20064;-82
2021/10/25 11:17:31;;;;;;;4.07;2.40;;;11.50;50.00;;;;;;5033588;28;20116;-82
2021/10/25 11:19:58;;;;;;;7.57;2.72;;;11.50;49.70;;;;;;5029301;28;20057;-82
2021/10/25 11:22:32;;;;;;;3.30;2.47;;;11.50;50.20;;;;;;5001511;28;20155;-81
2021/10/25 11:24:59;;;;;;;4.50;2.70;;;11.50;50.20;;;;;;4977153;28;20050;-82
2021/10/25 11:27:31;;;;;;;4.85;3.13;;;11.40;50.00;;;;;;5019388;28;20037;-82
2021/10/25 11:30:16;;;;;;;3.92;2.88;;;11.40;49.80;;;;;;5019979;28;20036;-82
2021/10/25 11:32:44;;;;;;;9.60;3.33;;;11.40;49.50;;;;;;5020317;28;20043;-82
2021/10/25 11:35:13;;;;;;;3.05;2.30;;;11.40;49.60;;;;;;5018447;28;20034;-82
2021/10/25 11:37:48;;;;;;;4.40;2.30;;;11.30;49.40;;;;;;5006318;28;20418;-81
2021/10/25 11:40:18;;;;;;;;;;;11.30;49.70;;;;;;5034051;28;20041;-81
2021/10/25 11:42:48;;;;;;;3.47;2.70;;;11.30;49.50;;;;;;5028249;28;19984;-81
2021/10/25 11:45:20;;;;;;;5.75;3.10;;;11.30;49.50;;;;;;5003595;28;20021;-82
2021/10/25 11:47:50;;;;;;;6.43;2.88;;;11.30;49.50;;;;;;5033393;28;20037;-82
2021/10/25 11:50:25;;;;;;;3.65;2.75;;;11.20;49.60;;;;;;5023924;28;20435;-81
2021/10/25 11:53:02;;;;;;;7.05;2.72;;;11.30;49.70;;;;;;4994978;28;20036;-81
2021/10/25 11:55:33;;;;;;;6.18;3.53;;;11.20;49.80;;;;;;5017836;28;20033;-82
2021/10/25 11:58:03;;;;;;;3.78;2.85;;;11.20;49.70;;;;;;5033338;28;20033;-81
2021/10/25 12:00:31;;;;;;;4.63;2.88;;;11.20;49.40;;;;;;5027756;28;20107;-82
2021/10/25 12:03:26;;;;;;;5.15;2.83;;;11.20;50.20;;;;;;5012304;28;20041;-82
2021/10/25 12:05:55;;;;;;;5.85;3.15;;;11.20;49.80;;;;;;4989062;28;20464;-82
2021/10/25 12:08:21;;;;;;;8.75;3.85;;;11.20;50.40;;;;;;5016283;28;20051;-82
2021/10/25 12:10:48;;;;;;;5.22;2.97;;;11.20;49.70;;;;;;5011115;28;20030;-81
2021/10/25 12:13:16;;;;;;;5.13;3.33;;;11.20;49.60;;;;;;5018281;28;20122;-83
2021/10/25 12:15:50;;;;;;;7.30;3.50;;;11.20;49.70;;;;;;5007274;28;20075;-83
2021/10/25 12:18:19;;;;;;;10.10;4.57;;;11.20;49.40;;;;;;5033754;28;20400;-82
2021/10/25 12:20:46;;;;;;;5.80;3.95;;;11.10;49.20;;;;;;5026619;28;20433;-82
2021/10/25 12:23:16;;;;;;;9.80;4.32;;;11.10;49.40;;;;;;5033172;28;20057;-83
2021/10/25 12:25:45;;;;;;;6.97;3.97;;;11.10;49.40;;;;;;5025905;28;20401;-82
2021/10/25 12:28:19;;;;;;;4.80;3.80;;;11.10;49.60;;;;;;5013653;28;20045;-81
2021/10/25 12:30:51;;;;;;;6.57;3.45;;;11.10;49.40;;;;;;5023325;28;20033;-82
2021/10/25 12:33:23;;;;;;;7.93;3.75;;;11.00;49.40;;;;;;4994053;28;20540;-82
2021/10/25 12:35:50;;;;;;;5.65;3.33;;;11.00;49.20;;;;;;5001522;28;20037;-82
2021/10/25 12:38:20;;;;;;;4.68;3.53;;;11.00;49.20;;;;;;5013674;28;20428;-82
2021/10/25 12:40:52;;;;;;;5.13;3.40;;;11.00;49.30;;;;;;5023395;28;20033;-82
2021/10/25 12:43:20;;;;;;;7.38;3.72;;;11.00;49.60;;;;;;5006522;28;20029;-82
2021/10/25 12:46:05;;;;;;;8.88;3.75;;;11.00;49.60;;;;;;4972921;28;20030;-82
2021/10/25 12:48:52;;;;;;;10.25;3.65;;;11.00;49.70;;;;;;5016852;28;20029;-83
2021/10/25 12:51:20;;;;;;;6.80;3.50;;;10.90;49.60;;;;;;5014147;28;20053;-83
2021/10/25 12:53:50;;;;;;;7.63;3.90;;;10.90;49.70;;;;;;5017739;28;20096;-82
2021/10/25 12:56:27;;;;;;;5.60;3.55;;;10.90;49.70;;;;;;5016871;28;20029;-82
2021/10/25 12:59:08;;;;;;;5.88;3.40;;;10.90;49.70;;;;;;4988885;28;20034;-83
2021/10/25 13:01:35;;;;;;;6.75;3.40;;;10.90;50.00;;;;;;5021622;28;20034;-83
2021/10/25 13:04:03;;;;;;;6.65;3.50;;;10.90;50.20;;;;;;5016698;28;20036;-84
2021/10/25 13:06:31;;;;;;;6.38;3.15;;;10.90;50.30;;;;;;5018280;28;20551;-83
2021/10/25 13:09:06;;;;;;;6.88;3.53;;;10.90;50.20;;;;;;4987876;28;20060;-84
2021/10/25 13:11:32;;;;;;;6.70;3.10;;;10.90;50.30;;;;;;4984055;28;20045;-82
2021/10/25 13:13:58;;;;;;;8.93;3.35;;;10.90;50.40;;;;;;5015301;28;20042;-84
2021/10/25 13:16:46;;;;;;;7.72;3.10;;;10.80;50.20;;;;;;4988470;28;20037;-83
2021/10/25 13:19:14;;;;;;;4.85;2.75;;;10.80;50.70;;;;;;5016076;28;20512;-86
2021/10/25 13:21:40;;;;;;;5.28;3.00;;;10.90;50.80;;;;;;5026175;28;20128;-84
2021/10/25 13:24:08;;;;;;;6.25;3.00;;;10.90;50.60;;;;;;5031691;28;20053;-83
2021/10/25 13:26:35;;;;;;;6.15;3.13;;;10.90;50.60;;;;;;5013411;28;20038;-83
2021/10/25 13:29:02;;;;;;;7.70;3.35;;;10.80;50.60;;;;;;4996331;28;20048;-83
2021/10/25 13:31:29;;;;;;;9.52;3.00;;;10.90;50.80;;;;;;5014805;28;20033;-82
2021/10/25 13:33:55;;;;;;;8.65;2.97;;;10.90;50.70;;;;;;5001109;28;20088;-84
2021/10/25 13:36:21;;;;;;;6.10;3.15;;;10.90;50.70;;;;;;4989350;28;20037;-83
2021/10/25 13:38:47;;;;;;;6.57;2.92;;;10.80;50.70;;;;;;5016907;28;20068;-82
2021/10/25 13:41:13;;;;;;;7.20;3.20;;;10.80;50.80;;;;;;5015326;28;20500;-84
2021/10/25 13:43:39;;;;;;;6.75;2.75;;;10.80;50.70;;;;;;5017190;28;20567;-82
2021/10/25 13:46:05;;;;;;;11.40;2.88;;;10.80;51.00;;;;;;4998157;28;20447;-82
2021/10/25 13:48:31;;;;;;;4.28;2.55;;;10.80;50.90;;;;;;5016897;28;20041;-83
2021/10/25 13:50:57;;;;;;;5.95;2.50;;;10.80;50.90;;;;;;5023624;28;20029;-82
2021/10/25 13:53:23;;;;;;;5.95;2.35;;;10.80;50.90;;;;;;5031466;28;20052;-82
2021/10/25 13:55:49;;;;;;;3.95;2.08;;;10.70;51.20;;;;;;5004630;28;20033;-82
2021/10/25 13:58:16;;;;;;;3.08;1.85;;;10.80;51.30;;;;;;5011797;28;20033;-84
2021/10/25 14:00:42;;;;;;;6.57;2.50;;;10.70;51.30;;;;;;5021312;28;20036;-83
2021/10/25 14:03:08;;;;;;;3.55;2.28;;;10.70;51.20;;;;;;5030604;28;20036;-84
2021/10/25 14:05:34;;;;;;;7.95;2.40;;;10.70;51.30;;;;;;5024395;28;20034;-84
2021/10/25 14:08:00;;;;;;;3.60;2.20;;;10.70;51.80;;;;;;4994076;28;20064;-85
2021/10/25 14:10:37;;;;;;;4.22;2.15;;;10.70;52.10;;;;;;5014175;28;20443;-85
2021/10/25 14:13:08;;;;;;;3.67;2.10;;;10.70;52.00;;;;;;5018611;28;20029;-84
2021/10/25 14:15:44;;;;;;;6.15;2.95;;;10.70;51.80;;;;;;5020373;28;20377;-81
2021/10/25 14:18:11;;;;;;;4.88;2.72;;;10.70;51.60;;;;;;5019748;28;20045;-81
2021/10/25 14:20:37;;;;;;;6.78;2.40;;;10.70;51.50;;;;;;5020871;28;20079;-81
2021/10/25 14:23:05;;;;;;;9.55;2.30;;;10.70;51.10;;;;;;5019531;28;20563;-82
2021/10/25 14:25:31;;;;;;;4.32;2.53;;;10.70;50.90;;;;;;5017383;28;20096;-80
2021/10/25 14:28:01;;;;;;;5.90;2.30;;;10.70;50.90;;;;;;5005934;28;20081;-83
2021/10/25 14:30:27;;;;;;;7.63;2.88;;;10.70;50.80;;;;;;5007928;28;20044;-82
2021/10/25 14:32:53;;;;;;;5.90;3.00;;;10.70;50.70;;;;;;5021212;28;20121;-81
2021/10/25 14:35:20;;;;;;;4.85;2.80;;;10.60;50.50;;;;;;5004757;28;20037;-81
2021/10/25 14:37:46;;;;;;;6.57;2.80;;;10.60;50.50;;;;;;5034603;28;20045;-82
2021/10/25 14:40:14;;;;;;;5.13;3.03;;;10.60;50.50;;;;;;5033060;28;20061;-82
2021/10/25 14:45:43;;;;;;;7.57;3.50;;;10.60;50.60;;;;;;4999524;28;20050;-80
2021/10/25 14:53:27;;;;;;;16.45;5.28;;;10.50;50.70;;;;;;5014065;28;20121;-81
2021/10/25 14:58:23;;;;;;;10.55;3.58;;;10.50;51.00;;;;;;5032818;28;20077;-80
2021/10/25 15:00:49;;;;;;;5.15;3.20;;;10.50;51.00;;;;;;5024100;28;20041;-81
2021/10/25 15:03:15;;;;;;;6.15;3.10;;;10.50;51.10;;;;;;4981299;28;20122;-81
2021/10/25 15:05:42;;;;;;;5.60;3.33;;;10.50;51.10;;;;;;5016993;28;20036;-81